Tropical Cyclones
[Index]
Main Index Home Page Stock Weather Photos Extreme Storms Discussion Storm News and Storm Chasing Reports Tropical Cyclones / Hurricanes / Typhoons Weather Data and Links Wild Fires / Bushfires Weather Observation Techniques Weather Picture Catalogue Tornado Pictures and Reports Stock Video Footage and DVDs for sale
Season 1961-1962 Tropical Cyclone 196211 Track Map
Season 1961-1962 Summaries: [BoM-AU] [JTWC-AU] [JTWC-SIO] [JTWC-SPAC] [JTWC-SH]
<<- Previous TC | JTWC 1961-1962 Season | Next TC ->>

click for intensity scale information  Lat/long Grid: Show Hide

 Date Labels: Show Hide

Joint Typhoon Warning Centre Cyclone Data

Name: 196211
Number: 432 / 6211

29 Jan 1962 00:00 UTC to 12 Feb 1962 18:00 UTC

    date/time    lat    long     hPa   cat  kts
1962-01-29 00   12.0   128.2                              
1962-01-29 06   12.3   128.6                              
1962-01-29 12   12.9   128.9                              
1962-01-29 18   14.2   129.2                              
1962-01-30 00   15.0   129.3                              
1962-01-30 06   15.3   129.3                              
1962-01-30 12   15.5   129.3                              
1962-01-30 18   15.8   129.2                              
1962-01-31 00   16.0   129.2                              
1962-01-31 06   16.2   129.1                              
1962-01-31 12   16.4   129.1                              
1962-01-31 18   16.6   129.0                              
1962-02-01 00   16.8   129.0                              
1962-02-01 06   17.2   128.8                              
1962-02-01 12   17.6   128.7                              
1962-02-01 18   17.9   128.5                              
1962-02-02 00   18.1   128.1                              
1962-02-02 06   17.2   126.9                              
1962-02-02 12   16.2   125.7                              
1962-02-02 18   15.4   124.8                              
1962-02-03 00   15.0   123.9                              
1962-02-03 06   15.1   122.8                              
1962-02-03 12   15.7   121.7                              
1962-02-03 18   16.4   120.9                              
1962-02-04 00   17.1   119.9                              
1962-02-04 06   17.8   118.9                              
1962-02-04 12   18.4   117.7                              
1962-02-04 18   18.9   116.1                              
1962-02-05 00   19.1   115.1                              
1962-02-05 06   19.2   114.8                              
1962-02-05 12   19.2   114.6                              
1962-02-05 18   19.2   114.3                              
1962-02-06 00   19.2   114.0                              
1962-02-06 06   19.3   113.6                              
1962-02-06 12   19.3   113.1                              
1962-02-06 18   19.3   112.6                              
1962-02-07 00   19.2   112.1                              
1962-02-07 06   19.0   111.7                              
1962-02-07 12   18.8   111.2                              
1962-02-07 18   18.5   110.9                              
1962-02-08 00   18.3   110.5                              
1962-02-08 06   18.0   109.9                              
1962-02-08 12   17.8   109.2                              
1962-02-08 18   17.7   108.4                              
1962-02-09 00   17.8   107.6                              
1962-02-09 06   17.9   106.7                              
1962-02-09 12   18.2   105.8                              
1962-02-09 18   18.6   104.9                              
1962-02-10 00   19.1   104.0                              
1962-02-10 06   19.7   103.2                              
1962-02-10 12   20.3   102.6                              
1962-02-10 18   21.9   102.3                              
1962-02-11 00   23.0   102.2                              
1962-02-11 06   23.4   102.3                              
1962-02-11 12   23.6   102.4                              
1962-02-11 18   23.9   102.7                              
1962-02-12 00   24.1   103.1                              
1962-02-12 06   24.5   103.6                              
1962-02-12 12   24.7   104.1                              
1962-02-12 18   24.9   104.6                              
Winds are 1-min average.

Tropical cyclone tracks developed by Michael Bath using data from the Joint Typhoon Warning Centre Best Tracks and Google Maps.


[Australian Severe Weather index] [Copyright Notice] [Email Contacts] [Search This Site] [Privacy Policy]
Document: tropical_cyclone_196211.htm Updated: 18 September 2016